RA07870 URMO-URSS
Flight info
| Callsign | RA07870 |
|---|---|
| Flight time | N/A |
| Altitude | 21000 |
| Route | TAFIK MOZAT RESLO ULNAS GUBOR BINOL |
| Aircraft | PC12/L-SDFGY/C |
Departure
| Time | 2026-05-06 18:27 |
|---|---|
| Airport | Vladikavkaz Beslan International Airport (URMO) |
Arrival
| Time | N/A |
|---|---|
| Airport | Sochi International Airport (URSS) |
| Time | Latitude | Longitude | Altitude | Speed | Heading |
|---|---|---|---|---|---|
| 2026-05-06 17:50 | 43.20221 | 44.61003 | 1678 ft | 0 kts | 11° |
| 2026-05-06 18:20 | 43.20226 | 44.61004 | 1678 ft | 3 kts | 10° |
| 2026-05-06 18:20 | 43.20244 | 44.61004 | 1682 ft | 3 kts | 344° |
| 2026-05-06 18:20 | 43.20250 | 44.60960 | 1680 ft | 8 kts | 212° |
| 2026-05-06 18:20 | 43.20193 | 44.60930 | 1678 ft | 9 kts | 250° |
| 2026-05-06 18:21 | 43.20203 | 44.60828 | 1680 ft | 13 kts | 281° |
| 2026-05-06 18:21 | 43.20223 | 44.60693 | 1678 ft | 16 kts | 281° |
| 2026-05-06 18:21 | 43.20251 | 44.60532 | 1678 ft | 19 kts | 282° |
| 2026-05-06 18:21 | 43.20267 | 44.60415 | 1678 ft | 0 kts | 281° |
| 2026-05-06 18:22 | 43.20297 | 44.60388 | 1678 ft | 12 kts | 14° |
| 2026-05-06 18:22 | 43.20341 | 44.60499 | 1680 ft | 17 kts | 20° |
| 2026-05-06 18:22 | 43.20409 | 44.60520 | 1682 ft | 1 kts | 9° |
| 2026-05-06 18:22 | 43.20410 | 44.60521 | 1681 ft | 0 kts | 11° |
| 2026-05-06 18:24 | 43.20420 | 44.60523 | 1685 ft | 8 kts | 11° |
| 2026-05-06 18:24 | 43.20524 | 44.60582 | 1674 ft | 25 kts | 73° |
| 2026-05-06 18:24 | 43.20495 | 44.60845 | 1671 ft | 32 kts | 101° |
| 2026-05-06 18:25 | 43.20449 | 44.61163 | 1671 ft | 36 kts | 101° |
| 2026-05-06 18:25 | 43.20396 | 44.61509 | 1673 ft | 38 kts | 101° |
| 2026-05-06 18:25 | 43.20344 | 44.61867 | 1679 ft | 39 kts | 102° |
| 2026-05-06 18:25 | 43.20293 | 44.62203 | 1678 ft | 26 kts | 101° |
| 2026-05-06 18:26 | 43.20249 | 44.62395 | 1680 ft | 10 kts | 124° |
| 2026-05-06 18:26 | 43.20265 | 44.62384 | 1679 ft | 13 kts | 281° |
| 2026-05-06 18:26 | 43.20270 | 44.62347 | 1682 ft | 0 kts | 282° |
| 2026-05-06 18:26 | 43.20283 | 44.62267 | 1678 ft | 31 kts | 282° |
| 2026-05-06 18:27 | 43.20364 | 44.61716 | 1675 ft | 82 kts | 283° |
| 2026-05-06 18:27 | 43.20493 | 44.60852 | 1840 ft | 97 kts | 281° |
| 2026-05-06 18:27 | 43.20614 | 44.59904 | 2088 ft | 108 kts | 281° |
| 2026-05-06 18:27 | 43.20785 | 44.58863 | 2465 ft | 113 kts | 284° |
| 2026-05-06 18:28 | 43.20983 | 44.57784 | 2760 ft | 123 kts | 282° |
| 2026-05-06 18:28 | 43.21164 | 44.56581 | 3074 ft | 134 kts | 283° |
| 2026-05-06 18:28 | 43.21393 | 44.55299 | 3383 ft | 144 kts | 284° |
| 2026-05-06 18:28 | 43.21658 | 44.53928 | 3702 ft | 152 kts | 285° |
| 2026-05-06 18:29 | 43.21823 | 44.52484 | 4084 ft | 155 kts | 277° |
| 2026-05-06 18:29 | 43.21977 | 44.51000 | 4467 ft | 158 kts | 280° |
| 2026-05-06 18:29 | 43.22179 | 44.49520 | 4870 ft | 157 kts | 282° |
| 2026-05-06 18:29 | 43.22393 | 44.48054 | 5242 ft | 157 kts | 282° |
| 2026-05-06 18:30 | 43.22721 | 44.46643 | 5601 ft | 155 kts | 296° |
| 2026-05-06 18:30 | 43.23214 | 44.45325 | 5980 ft | 155 kts | 297° |
| 2026-05-06 18:30 | 43.23710 | 44.44001 | 6350 ft | 157 kts | 297° |
| 2026-05-06 18:30 | 43.24208 | 44.42654 | 6724 ft | 161 kts | 297° |
| 2026-05-06 18:31 | 43.24711 | 44.41288 | 7116 ft | 164 kts | 298° |
| 2026-05-06 18:31 | 43.25229 | 44.39882 | 7545 ft | 165 kts | 297° |
| 2026-05-06 18:31 | 43.25741 | 44.38491 | 7966 ft | 161 kts | 298° |
| 2026-05-06 18:31 | 43.26241 | 44.37131 | 8353 ft | 158 kts | 298° |
| 2026-05-06 18:32 | 43.26732 | 44.35794 | 8734 ft | 156 kts | 298° |
| 2026-05-06 18:32 | 43.27218 | 44.34471 | 9102 ft | 155 kts | 298° |
| 2026-05-06 18:32 | 43.27700 | 44.33156 | 9456 ft | 154 kts | 298° |
| 2026-05-06 18:32 | 43.28183 | 44.31842 | 9805 ft | 154 kts | 298° |
| 2026-05-06 18:33 | 43.28665 | 44.30526 | 10135 ft | 154 kts | 298° |
| 2026-05-06 18:33 | 43.29146 | 44.29214 | 10445 ft | 154 kts | 298° |
| 2026-05-06 18:33 | 43.29630 | 44.27892 | 10763 ft | 155 kts | 298° |
| 2026-05-06 18:33 | 43.30111 | 44.26580 | 11070 ft | 153 kts | 298° |
| 2026-05-06 18:34 | 43.30589 | 44.25274 | 11388 ft | 153 kts | 297° |
| 2026-05-06 18:34 | 43.31067 | 44.23967 | 11701 ft | 153 kts | 297° |
| 2026-05-06 18:34 | 43.31545 | 44.22661 | 12004 ft | 153 kts | 297° |
| 2026-05-06 18:34 | 43.32024 | 44.21350 | 12313 ft | 154 kts | 297° |
| 2026-05-06 18:35 | 43.32503 | 44.20031 | 12623 ft | 154 kts | 296° |
| 2026-05-06 18:35 | 43.32966 | 44.18720 | 12915 ft | 155 kts | 295° |
| 2026-05-06 18:35 | 43.33429 | 44.17368 | 13207 ft | 156 kts | 295° |
| 2026-05-06 18:35 | 43.33915 | 44.16017 | 13449 ft | 159 kts | 295° |
| 2026-05-06 18:36 | 43.34407 | 44.14672 | 13778 ft | 157 kts | 296° |
| 2026-05-06 18:36 | 43.34899 | 44.13331 | 14061 ft | 156 kts | 296° |
| 2026-05-06 18:36 | 43.35436 | 44.12030 | 14312 ft | 157 kts | 298° |
| 2026-05-06 18:36 | 43.35927 | 44.10694 | 14575 ft | 157 kts | 295° |
| 2026-05-06 18:37 | 43.36406 | 44.09342 | 14836 ft | 158 kts | 295° |
| 2026-05-06 18:37 | 43.36730 | 44.08444 | 15009 ft | 158 kts | 296° |
| 2026-05-06 18:37 | 43.37388 | 44.06632 | 15379 ft | 159 kts | 296° |
| 2026-05-06 18:37 | 43.37883 | 44.05269 | 15675 ft | 160 kts | 296° |
| 2026-05-06 18:38 | 43.38374 | 44.03919 | 15958 ft | 160 kts | 296° |
| 2026-05-06 18:38 | 43.38872 | 44.02547 | 16233 ft | 161 kts | 296° |
| 2026-05-06 18:38 | 43.39372 | 44.01170 | 16507 ft | 161 kts | 296° |
| 2026-05-06 18:38 | 43.39874 | 43.99785 | 16764 ft | 163 kts | 296° |
| 2026-05-06 18:39 | 43.40369 | 43.98421 | 17182 ft | 154 kts | 295° |
| 2026-05-06 18:39 | 43.40833 | 43.97140 | 17624 ft | 145 kts | 296° |
| 2026-05-06 18:39 | 43.41265 | 43.95942 | 18072 ft | 135 kts | 295° |
| 2026-05-06 18:40 | 43.41935 | 43.94216 | 18742 ft | 108 kts | 297° |
| 2026-05-06 18:40 | 43.42431 | 43.92820 | 18676 ft | 141 kts | 294° |
| 2026-05-06 18:40 | 43.42711 | 43.91975 | 18714 ft | 152 kts | 294° |
| 2026-05-06 18:40 | 43.43392 | 43.90138 | 18872 ft | 164 kts | 299° |
| 2026-05-06 18:41 | 43.43952 | 43.88883 | 19335 ft | 150 kts | 301° |
| 2026-05-06 18:41 | 43.44482 | 43.87650 | 19623 ft | 149 kts | 298° |
| 2026-05-06 18:41 | 43.44818 | 43.86806 | 19817 ft | 148 kts | 297° |
| 2026-05-06 18:41 | 43.45307 | 43.85560 | 20030 ft | 153 kts | 298° |
| 2026-05-06 18:42 | 43.45840 | 43.84203 | 20048 ft | 170 kts | 298° |
| 2026-05-06 18:42 | 43.46428 | 43.82709 | 20053 ft | 185 kts | 298° |
| 2026-05-06 18:42 | 43.47063 | 43.81094 | 20057 ft | 197 kts | 298° |
| 2026-05-06 18:42 | 43.47732 | 43.79389 | 20058 ft | 207 kts | 298° |
| 2026-05-06 18:43 | 43.48427 | 43.77617 | 20055 ft | 214 kts | 298° |
| 2026-05-06 18:43 | 43.49141 | 43.75791 | 20057 ft | 219 kts | 298° |
| 2026-05-06 18:43 | 43.49868 | 43.73929 | 20056 ft | 222 kts | 298° |
| 2026-05-06 18:43 | 43.50603 | 43.72048 | 20057 ft | 224 kts | 298° |
| 2026-05-06 18:44 | 43.51346 | 43.70143 | 20058 ft | 226 kts | 298° |
| 2026-05-06 18:44 | 43.52084 | 43.68252 | 20054 ft | 228 kts | 298° |
| 2026-05-06 18:44 | 43.52836 | 43.66324 | 20055 ft | 229 kts | 298° |
| 2026-05-06 18:44 | 43.53590 | 43.64386 | 20055 ft | 230 kts | 298° |
| 2026-05-06 18:45 | 43.54351 | 43.62431 | 20056 ft | 233 kts | 298° |
| 2026-05-06 18:45 | 43.55127 | 43.60434 | 20057 ft | 239 kts | 298° |
| 2026-05-06 18:45 | 43.55922 | 43.58391 | 20056 ft | 244 kts | 298° |
| 2026-05-06 18:45 | 43.56728 | 43.56317 | 20060 ft | 247 kts | 298° |
| 2026-05-06 18:46 | 43.57545 | 43.54213 | 20058 ft | 250 kts | 298° |
| 2026-05-06 18:46 | 43.58366 | 43.52095 | 20058 ft | 251 kts | 298° |
| 2026-05-06 18:46 | 43.59193 | 43.49961 | 20055 ft | 252 kts | 298° |
| 2026-05-06 18:46 | 43.60022 | 43.47819 | 20057 ft | 253 kts | 298° |
| 2026-05-06 18:47 | 43.60853 | 43.45670 | 20058 ft | 254 kts | 298° |
| 2026-05-06 18:47 | 43.61675 | 43.43544 | 20059 ft | 254 kts | 298° |
| 2026-05-06 18:47 | 43.62509 | 43.41386 | 20059 ft | 254 kts | 298° |
| 2026-05-06 18:47 | 43.63343 | 43.39225 | 20061 ft | 254 kts | 298° |
| 2026-05-06 18:48 | 43.64174 | 43.37069 | 20061 ft | 255 kts | 298° |
| 2026-05-06 18:48 | 43.65007 | 43.34908 | 20060 ft | 255 kts | 297° |
| 2026-05-06 18:48 | 43.65841 | 43.32744 | 20066 ft | 255 kts | 297° |
| 2026-05-06 18:48 | 43.66675 | 43.30577 | 20070 ft | 255 kts | 297° |
| 2026-05-06 18:49 | 43.67507 | 43.28412 | 20070 ft | 255 kts | 297° |
| 2026-05-06 18:49 | 43.68339 | 43.26247 | 20076 ft | 255 kts | 297° |
| 2026-05-06 18:49 | 43.69170 | 43.24082 | 20076 ft | 255 kts | 297° |
| 2026-05-06 18:49 | 43.70000 | 43.21918 | 20081 ft | 255 kts | 297° |
| 2026-05-06 18:50 | 43.70831 | 43.19750 | 20082 ft | 255 kts | 297° |
| 2026-05-06 18:50 | 43.71661 | 43.17584 | 20083 ft | 255 kts | 297° |
| 2026-05-06 18:50 | 43.72489 | 43.15418 | 20087 ft | 255 kts | 297° |
| 2026-05-06 18:50 | 43.73367 | 43.13301 | 20084 ft | 253 kts | 301° |
| 2026-05-06 18:51 | 43.74263 | 43.11210 | 20084 ft | 253 kts | 299° |
| 2026-05-06 18:51 | 43.75147 | 43.09096 | 20089 ft | 253 kts | 300° |
| 2026-05-06 18:51 | 43.76045 | 43.06996 | 20095 ft | 254 kts | 300° |
| 2026-05-06 18:51 | 43.76938 | 43.04928 | 20093 ft | 254 kts | 300° |
| 2026-05-06 18:52 | 43.77842 | 43.02825 | 20092 ft | 254 kts | 300° |
| 2026-05-06 18:52 | 43.78741 | 43.00724 | 20098 ft | 254 kts | 300° |
| 2026-05-06 18:52 | 43.79641 | 42.98621 | 20090 ft | 254 kts | 300° |
| 2026-05-06 18:52 | 43.80540 | 42.96518 | 20099 ft | 254 kts | 300° |
| 2026-05-06 18:53 | 43.81438 | 42.94418 | 20094 ft | 254 kts | 300° |
| 2026-05-06 18:53 | 43.82337 | 42.92313 | 20095 ft | 253 kts | 300° |
| 2026-05-06 18:53 | 43.83235 | 42.90210 | 20100 ft | 253 kts | 300° |
| 2026-05-06 18:53 | 43.84132 | 42.88107 | 20100 ft | 253 kts | 300° |
| 2026-05-06 18:54 | 43.85026 | 42.86007 | 20104 ft | 253 kts | 300° |
| 2026-05-06 18:54 | 43.85921 | 42.83907 | 20101 ft | 253 kts | 300° |
| 2026-05-06 18:54 | 43.86815 | 42.81805 | 20106 ft | 253 kts | 300° |
| 2026-05-06 18:54 | 43.87710 | 42.79700 | 20108 ft | 253 kts | 300° |
| 2026-05-06 18:55 | 43.88593 | 42.77622 | 20109 ft | 253 kts | 300° |
| 2026-05-06 18:55 | 43.89487 | 42.75517 | 20111 ft | 253 kts | 300° |
| 2026-05-06 18:55 | 43.90380 | 42.73413 | 20107 ft | 253 kts | 300° |
| 2026-05-06 18:55 | 43.91273 | 42.71305 | 20111 ft | 253 kts | 300° |
| 2026-05-06 18:56 | 43.92165 | 42.69200 | 20111 ft | 253 kts | 300° |
| 2026-05-06 18:56 | 43.93056 | 42.67097 | 20113 ft | 253 kts | 300° |
| 2026-05-06 18:56 | 43.93946 | 42.64991 | 20113 ft | 253 kts | 300° |
| 2026-05-06 18:56 | 43.94750 | 42.62833 | 20115 ft | 252 kts | 288° |
| 2026-05-06 18:57 | 43.94954 | 42.60439 | 20117 ft | 251 kts | 269° |
| 2026-05-06 18:57 | 43.94886 | 42.58015 | 20117 ft | 251 kts | 268° |
| 2026-05-06 18:57 | 43.94807 | 42.55593 | 20119 ft | 251 kts | 268° |
| 2026-05-06 18:57 | 43.94740 | 42.53168 | 20120 ft | 252 kts | 268° |
| 2026-05-06 18:58 | 43.94676 | 42.50738 | 20125 ft | 252 kts | 268° |
| 2026-05-06 18:58 | 43.94613 | 42.48428 | 20125 ft | 252 kts | 268° |
| 2026-05-06 18:58 | 43.94543 | 42.45993 | 20128 ft | 253 kts | 268° |
| 2026-05-06 18:58 | 43.94475 | 42.43588 | 20124 ft | 252 kts | 268° |
| 2026-05-06 18:59 | 43.94406 | 42.41156 | 20126 ft | 251 kts | 268° |
| 2026-05-06 18:59 | 43.94336 | 42.38733 | 20126 ft | 251 kts | 268° |
| 2026-05-06 18:59 | 43.94266 | 42.36318 | 20125 ft | 250 kts | 268° |
| 2026-05-06 18:59 | 43.94196 | 42.33908 | 20126 ft | 250 kts | 268° |
| 2026-05-06 19:00 | 43.94125 | 42.31502 | 20129 ft | 250 kts | 268° |
| 2026-05-06 19:00 | 43.94054 | 42.29092 | 20129 ft | 250 kts | 268° |
| 2026-05-06 19:00 | 43.93982 | 42.26686 | 20132 ft | 250 kts | 268° |
| 2026-05-06 19:00 | 43.93910 | 42.24276 | 20134 ft | 250 kts | 268° |
| 2026-05-06 19:01 | 43.93837 | 42.21871 | 20133 ft | 250 kts | 268° |
| 2026-05-06 19:01 | 43.93764 | 42.19465 | 20136 ft | 250 kts | 268° |
| 2026-05-06 19:01 | 43.93691 | 42.17090 | 20139 ft | 250 kts | 268° |
| 2026-05-06 19:01 | 43.93616 | 42.14653 | 20136 ft | 250 kts | 268° |
| 2026-05-06 19:02 | 43.93542 | 42.12278 | 20137 ft | 249 kts | 268° |
| 2026-05-06 19:02 | 43.93467 | 42.09873 | 20133 ft | 249 kts | 268° |
| 2026-05-06 19:02 | 43.93391 | 42.07473 | 20133 ft | 249 kts | 268° |
| 2026-05-06 19:02 | 43.93315 | 42.05069 | 20131 ft | 249 kts | 268° |
| 2026-05-06 19:03 | 43.93238 | 42.02668 | 20135 ft | 249 kts | 268° |
| 2026-05-06 19:03 | 43.93161 | 42.00266 | 20139 ft | 249 kts | 268° |
| 2026-05-06 19:03 | 43.93083 | 41.97865 | 20139 ft | 249 kts | 268° |
| 2026-05-06 19:03 | 43.93005 | 41.95456 | 20140 ft | 249 kts | 268° |
| 2026-05-06 19:04 | 43.92926 | 41.93050 | 20143 ft | 250 kts | 268° |
| 2026-05-06 19:04 | 43.92847 | 41.90646 | 20143 ft | 250 kts | 268° |
| 2026-05-06 19:04 | 43.92767 | 41.88244 | 20142 ft | 250 kts | 268° |
| 2026-05-06 19:04 | 43.92687 | 41.85841 | 20143 ft | 249 kts | 268° |
| 2026-05-06 19:05 | 43.92606 | 41.83439 | 20146 ft | 249 kts | 268° |
| 2026-05-06 19:05 | 43.92525 | 41.81036 | 20145 ft | 249 kts | 268° |
| 2026-05-06 19:05 | 43.92444 | 41.78638 | 20147 ft | 249 kts | 268° |
| 2026-05-06 19:05 | 43.92362 | 41.76240 | 20144 ft | 249 kts | 268° |
| 2026-05-06 19:06 | 43.92279 | 41.73835 | 20142 ft | 249 kts | 268° |
| 2026-05-06 19:06 | 43.92197 | 41.71471 | 20145 ft | 249 kts | 268° |
| 2026-05-06 19:06 | 43.92114 | 41.69072 | 20149 ft | 249 kts | 268° |
| 2026-05-06 19:06 | 43.92030 | 41.66676 | 20149 ft | 249 kts | 268° |
| 2026-05-06 19:07 | 43.91945 | 41.64283 | 20147 ft | 248 kts | 268° |
| 2026-05-06 19:07 | 43.91861 | 41.61888 | 20147 ft | 248 kts | 268° |
| 2026-05-06 19:07 | 43.91776 | 41.59499 | 20150 ft | 248 kts | 268° |
| 2026-05-06 19:07 | 43.91690 | 41.57110 | 20151 ft | 248 kts | 268° |
| 2026-05-06 19:08 | 43.91603 | 41.54722 | 20148 ft | 248 kts | 268° |
| 2026-05-06 19:08 | 43.91512 | 41.52333 | 20153 ft | 248 kts | 268° |
| 2026-05-06 19:08 | 43.91420 | 41.49939 | 20151 ft | 248 kts | 268° |
| 2026-05-06 19:08 | 43.91329 | 41.47548 | 20150 ft | 248 kts | 268° |
| 2026-05-06 19:09 | 43.91237 | 41.45153 | 20152 ft | 249 kts | 268° |
| 2026-05-06 19:09 | 43.91145 | 41.42760 | 20151 ft | 249 kts | 268° |
| 2026-05-06 19:09 | 43.91051 | 41.40360 | 20150 ft | 249 kts | 268° |
| 2026-05-06 19:09 | 43.90958 | 41.37958 | 20154 ft | 249 kts | 268° |
| 2026-05-06 19:10 | 43.90864 | 41.35560 | 20152 ft | 249 kts | 268° |
| 2026-05-06 19:10 | 43.90769 | 41.33158 | 20153 ft | 250 kts | 268° |
| 2026-05-06 19:10 | 43.90777 | 41.30788 | 20148 ft | 248 kts | 278° |
| 2026-05-06 19:10 | 43.91061 | 41.28444 | 20188 ft | 245 kts | 282° |
| 2026-05-06 19:11 | 43.91436 | 41.26158 | 20211 ft | 244 kts | 289° |
| 2026-05-06 19:11 | 43.92204 | 41.24054 | 20150 ft | 245 kts | 303° |
| 2026-05-06 19:11 | 43.92790 | 41.21869 | 20122 ft | 248 kts | 273° |
| 2026-05-06 19:11 | 43.92381 | 41.19513 | 19956 ft | 256 kts | 248° |
| 2026-05-06 19:12 | 43.91515 | 41.17388 | 20068 ft | 248 kts | 240° |
| 2026-05-06 19:12 | 43.90921 | 41.15201 | 20200 ft | 241 kts | 254° |
| 2026-05-06 19:12 | 43.90470 | 41.12943 | 20205 ft | 244 kts | 258° |
| 2026-05-06 19:12 | 43.90121 | 41.10652 | 20311 ft | 242 kts | 260° |
| 2026-05-06 19:13 | 43.89798 | 41.08354 | 20250 ft | 246 kts | 259° |
| 2026-05-06 19:13 | 43.89341 | 41.06042 | 20157 ft | 251 kts | 253° |
| 2026-05-06 19:13 | 43.88810 | 41.03768 | 20155 ft | 251 kts | 254° |
| 2026-05-06 19:13 | 43.88306 | 41.01443 | 20156 ft | 251 kts | 256° |
| 2026-05-06 19:14 | 43.87828 | 40.99111 | 20154 ft | 252 kts | 256° |
| 2026-05-06 19:14 | 43.87343 | 40.96782 | 20154 ft | 252 kts | 255° |
| 2026-05-06 19:14 | 43.86848 | 40.94449 | 20155 ft | 252 kts | 255° |
| 2026-05-06 19:14 | 43.86352 | 40.92116 | 20154 ft | 254 kts | 255° |
| 2026-05-06 19:15 | 43.85854 | 40.89761 | 20154 ft | 255 kts | 255° |
| 2026-05-06 19:15 | 43.85352 | 40.87388 | 20156 ft | 257 kts | 255° |
| 2026-05-06 19:15 | 43.84846 | 40.85005 | 20156 ft | 258 kts | 255° |
| 2026-05-06 19:15 | 43.84343 | 40.82638 | 20156 ft | 259 kts | 255° |
| 2026-05-06 19:16 | 43.83832 | 40.80236 | 20157 ft | 260 kts | 255° |
| 2026-05-06 19:16 | 43.83321 | 40.77833 | 20154 ft | 261 kts | 255° |
| 2026-05-06 19:16 | 43.82807 | 40.75421 | 20157 ft | 261 kts | 255° |
| 2026-05-06 19:16 | 43.82293 | 40.73008 | 20156 ft | 262 kts | 255° |
| 2026-05-06 19:17 | 43.81775 | 40.70585 | 20158 ft | 262 kts | 255° |
| 2026-05-06 19:17 | 43.81257 | 40.68164 | 20161 ft | 262 kts | 255° |
| 2026-05-06 19:17 | 43.80738 | 40.65739 | 20160 ft | 263 kts | 255° |
| 2026-05-06 19:17 | 43.80219 | 40.63314 | 20158 ft | 263 kts | 255° |
| 2026-05-06 19:18 | 43.79699 | 40.60891 | 20156 ft | 263 kts | 255° |
| 2026-05-06 19:18 | 43.79177 | 40.58463 | 20155 ft | 263 kts | 255° |
| 2026-05-06 19:18 | 43.78653 | 40.56027 | 20154 ft | 263 kts | 255° |
| 2026-05-06 19:18 | 43.78129 | 40.53596 | 20153 ft | 263 kts | 255° |
| 2026-05-06 19:19 | 43.77612 | 40.51201 | 20153 ft | 263 kts | 255° |
| 2026-05-06 19:19 | 43.77082 | 40.48745 | 20154 ft | 263 kts | 255° |
| 2026-05-06 19:19 | 43.76559 | 40.46320 | 20154 ft | 263 kts | 255° |
| 2026-05-06 19:19 | 43.76040 | 40.43921 | 20153 ft | 263 kts | 255° |
| 2026-05-06 19:20 | 43.75516 | 40.41499 | 20153 ft | 263 kts | 255° |
| 2026-05-06 19:20 | 43.74989 | 40.39073 | 20152 ft | 263 kts | 254° |
| 2026-05-06 19:20 | 43.74463 | 40.36648 | 20156 ft | 263 kts | 254° |
| 2026-05-06 19:20 | 43.73938 | 40.34232 | 20157 ft | 263 kts | 254° |
| 2026-05-06 19:21 | 43.73411 | 40.31810 | 20156 ft | 263 kts | 254° |
| 2026-05-06 19:21 | 43.72884 | 40.29392 | 20156 ft | 262 kts | 254° |
| 2026-05-06 19:21 | 43.72357 | 40.26980 | 20154 ft | 262 kts | 254° |
| 2026-05-06 19:21 | 43.71831 | 40.24569 | 20159 ft | 262 kts | 254° |
| 2026-05-06 19:22 | 43.71304 | 40.22158 | 20155 ft | 262 kts | 254° |
| 2026-05-06 19:22 | 43.70782 | 40.19772 | 20155 ft | 262 kts | 254° |
| 2026-05-06 19:22 | 43.70255 | 40.17369 | 20157 ft | 261 kts | 254° |
| 2026-05-06 19:22 | 43.69722 | 40.14938 | 20156 ft | 261 kts | 254° |
| 2026-05-06 19:23 | 43.69138 | 40.12574 | 20154 ft | 259 kts | 244° |
| 2026-05-06 19:23 | 43.68050 | 40.10648 | 20158 ft | 259 kts | 220° |
| 2026-05-06 19:23 | 43.66503 | 40.09381 | 20161 ft | 258 kts | 205° |
| 2026-05-06 19:23 | 43.64865 | 40.08363 | 20162 ft | 258 kts | 204° |
| 2026-05-06 19:24 | 43.63218 | 40.07348 | 20163 ft | 259 kts | 204° |
| 2026-05-06 19:24 | 43.61578 | 40.06318 | 20165 ft | 259 kts | 204° |
| 2026-05-06 19:24 | 43.59936 | 40.05282 | 20163 ft | 260 kts | 204° |
| 2026-05-06 19:24 | 43.58293 | 40.04251 | 20163 ft | 260 kts | 204° |
| 2026-05-06 19:25 | 43.56648 | 40.03221 | 20164 ft | 260 kts | 204° |
| 2026-05-06 19:25 | 43.55005 | 40.02193 | 20164 ft | 259 kts | 204° |
| 2026-05-06 19:25 | 43.53360 | 40.01163 | 20166 ft | 259 kts | 204° |
| 2026-05-06 19:25 | 43.51714 | 40.00133 | 20165 ft | 259 kts | 204° |
| 2026-05-06 19:26 | 43.50069 | 39.99105 | 20166 ft | 260 kts | 204° |
| 2026-05-06 19:26 | 43.48423 | 39.98076 | 20165 ft | 260 kts | 204° |
| 2026-05-06 19:26 | 43.46799 | 39.97062 | 20164 ft | 260 kts | 204° |
| 2026-05-06 19:26 | 43.45138 | 39.96075 | 20156 ft | 258 kts | 198° |
| 2026-05-06 19:27 | 43.43430 | 39.95311 | 20160 ft | 258 kts | 198° |
| 2026-05-06 19:27 | 43.41722 | 39.94524 | 20150 ft | 259 kts | 198° |
| 2026-05-06 19:27 | 43.40011 | 39.93734 | 20135 ft | 259 kts | 198° |
| 2026-05-06 19:27 | 43.38269 | 39.92939 | 19873 ft | 267 kts | 198° |
| 2026-05-06 19:28 | 43.36492 | 39.92131 | 19552 ft | 271 kts | 198° |
| 2026-05-06 19:28 | 43.34696 | 39.91313 | 19240 ft | 273 kts | 198° |
| 2026-05-06 19:28 | 43.32889 | 39.90490 | 18930 ft | 274 kts | 198° |
| 2026-05-06 19:28 | 43.31075 | 39.89665 | 18620 ft | 274 kts | 198° |
| 2026-05-06 19:29 | 43.29877 | 39.89121 | 18412 ft | 274 kts | 198° |
| 2026-05-06 19:29 | 43.28061 | 39.88296 | 18013 ft | 275 kts | 197° |
| 2026-05-06 19:29 | 43.26251 | 39.87473 | 17611 ft | 273 kts | 198° |
| 2026-05-06 19:29 | 43.24568 | 39.86316 | 17341 ft | 267 kts | 208° |
| 2026-05-06 19:30 | 43.23092 | 39.84801 | 16953 ft | 267 kts | 226° |
| 2026-05-06 19:30 | 43.21756 | 39.82867 | 15965 ft | 285 kts | 226° |
| 2026-05-06 19:30 | 43.20315 | 39.81139 | 15899 ft | 268 kts | 212° |
| 2026-05-06 19:30 | 43.18615 | 39.80198 | 15734 ft | 261 kts | 192° |
| 2026-05-06 19:31 | 43.16863 | 39.79757 | 15572 ft | 255 kts | 189° |
| 2026-05-06 19:31 | 43.15095 | 39.79327 | 15228 ft | 260 kts | 189° |
| 2026-05-06 19:31 | 43.11510 | 39.78488 | 14575 ft | 264 kts | 189° |
| 2026-05-06 19:32 | 43.09676 | 39.78064 | 14251 ft | 264 kts | 189° |
| 2026-05-06 19:32 | 43.07889 | 39.77685 | 13930 ft | 263 kts | 187° |
| 2026-05-06 19:32 | 43.06052 | 39.77383 | 13579 ft | 262 kts | 186° |
| 2026-05-06 19:32 | 43.04241 | 39.77111 | 13229 ft | 261 kts | 186° |
| 2026-05-06 19:33 | 43.02442 | 39.76850 | 12883 ft | 260 kts | 186° |